Time;durP1;ratioP1;P1;durP2;ratioP2;P2;SDS_P1;SDS_P2;PMS_P1;PMS_P2;Temp;Humidity;BMP_temperature;BMP_pressure;BME280_temperature;BME280_humidity;BME280_pressure;Samples;Min_cycle;Max_cycle;Signal;HPM_P1;HPM_P2
2022/07/12 00:01:12;;;;;;;;;;;;;;;15.70;49.34;101215.15;1650956;85;25830;-58
2022/07/12 00:03:38;;;;;;;;;;;;;;;15.60;49.74;101214.39;1670680;84;25757;-58
2022/07/12 00:06:05;;;;;;;;;;;;;;;15.52;49.61;101214.34;1673390;82;26173;-58
2022/07/12 00:08:32;;;;;;;;;;;;;;;15.48;50.23;101223.30;1665167;84;26251;-58
2022/07/12 00:10:59;;;;;;;;;;;;;;;15.42;50.24;101219.34;1657772;83;27475;-58
2022/07/12 00:13:25;;;;;;;;;;;;;;;15.33;50.70;101211.67;1672090;84;25774;-58
2022/07/12 00:15:52;;;;;;;;;;;;;;;15.26;50.49;101207.89;1663817;84;25842;-58
2022/07/12 00:18:19;;;;;;;;;;;;;;;15.21;50.71;101215.63;1675959;84;26109;-58
2022/07/12 00:20:45;;;;;;;;;;;;;;;15.14;50.56;101209.13;1664741;84;25777;-59
2022/07/12 00:23:12;;;;;;;;;;;;;;;15.09;50.71;101213.66;1664761;84;27483;-58
2022/07/12 00:25:39;;;;;;;;;;;;;;;15.04;50.85;101211.92;1678567;85;25816;-58
2022/07/12 00:28:07;;;;;;;;;;;;;;;14.98;51.09;101216.10;1665971;84;25758;-59
2022/07/12 00:30:33;;;;;;;;;;;;;;;14.91;51.20;101212.80;1666444;84;26248;-58
2022/07/12 00:33:00;;;;;;;;;;;;;;;14.80;51.47;101224.72;1669723;84;25943;-57
2022/07/12 00:35:27;;;;;;;;;;;;;;;14.71;51.66;101228.69;1668541;84;27397;-58
2022/07/12 00:37:53;;;;;;;;;;;;;;;14.69;52.11;101227.14;1666179;85;25726;-58
2022/07/12 00:40:20;;;;;;;;;;;;;;;14.62;52.41;101228.22;1663846;84;25719;-58
2022/07/12 00:42:47;;;;;;;;;;;;;;;14.53;52.66;101224.55;1655444;84;26098;-58
2022/07/12 00:45:14;;;;;;;;;;;;;;;14.48;52.85;101226.87;1669296;84;25779;-58
2022/07/12 00:47:44;;;;;;;;;;;;;;;14.44;52.56;101228.16;1709561;82;27447;-58
2022/07/12 00:50:14;;;;;;;;;;;;;;;14.40;52.66;101228.12;1711499;83;25917;-58
2022/07/12 00:52:42;;;;;;;;;;;;;;;14.35;53.07;101233.98;1704308;83;25694;-57
2022/07/12 00:55:10;;;;;;;;;;;;;;;14.35;52.82;101243.45;1692085;82;26201;-58
2022/07/12 00:57:37;;;;;;;;;;;;;;;14.33;53.03;101240.56;1680825;83;26039;-59
2022/07/12 01:00:07;;;;;;;;;;;;;;;14.26;54.52;101240.30;1675361;83;27485;-58
2022/07/12 01:02:36;;;;;;;;;;;;;;;14.20;54.32;101240.90;1667735;84;25911;-58
2022/07/12 01:05:05;;;;;;;;;;;;;;;14.17;54.01;101239.83;1680233;83;26449;-58
2022/07/12 01:07:33;;;;;;;;;;;;;;;14.14;54.43;101234.70;1699199;83;26900;-58
2022/07/12 01:10:00;;;;;;;;;;;;;;;14.12;54.63;101237.57;1690281;83;25898;-58
2022/07/12 01:12:27;;;;;;;;;;;;;;;14.09;53.94;101239.20;1680307;83;28130;-58
2022/07/12 01:14:54;;;;;;;;;;;;;;;14.11;54.07;101239.92;1664487;84;25921;-58
2022/07/12 01:17:22;;;;;;;;;;;;;;;14.12;54.42;101245.69;1671383;85;25689;-58
2022/07/12 01:19:49;;;;;;;;;;;;;;;14.12;54.53;101238.92;1669100;84;26110;-58
2022/07/12 01:22:18;;;;;;;;;;;;;;;14.08;54.40;101236.14;1664736;84;26081;-58
2022/07/12 01:24:45;;;;;;;;;;;;;;;14.04;54.46;101235.59;1668453;84;28328;-58
2022/07/12 01:27:12;;;;;;;;;;;;;;;13.99;54.72;101231.62;1656075;84;25715;-58
2022/07/12 01:29:40;;;;;;;;;;;;;;;13.95;54.48;101228.88;1659024;84;25860;-58
2022/07/12 01:32:26;;;;;;;;;;;;;;;13.90;55.19;101233.37;1671804;84;26242;-58
2022/07/12 01:35:05;;;;;;;;;;;;;;;13.87;54.95;101233.17;1658026;84;25755;-58
2022/07/12 01:37:37;;;;;;;;;;;;;;;13.85;55.56;101231.62;1678047;84;27530;-57
2022/07/12 01:40:06;;;;;;;;;;;;;;;13.84;55.18;101228.05;1670662;85;25667;-58
2022/07/12 01:42:33;;;;;;;;;;;;;;;13.83;55.53;101240.37;1672430;84;25827;-58
2022/07/12 01:44:59;;;;;;;;;;;;;;;13.82;56.02;101236.80;1662520;84;26073;-59
2022/07/12 01:47:29;;;;;;;;;;;;;;;13.80;55.96;101246.06;1695283;82;25939;-59
2022/07/12 01:49:57;;;;;;;;;;;;;;;13.77;56.03;101252.11;1702372;82;27527;-59
2022/07/12 01:52:24;;;;;;;;;;;;;;;13.74;56.11;101248.84;1692590;83;26009;-59
2022/07/12 01:54:50;;;;;;;;;;;;;;;13.69;56.05;101249.79;1700597;83;25710;-59
2022/07/12 01:57:17;;;;;;;;;;;;;;;13.65;56.08;101245.17;1700272;83;26877;-58
2022/07/12 01:59:44;;;;;;;;;;;;;;;13.62;56.86;101249.51;1703909;82;26578;-59
2022/07/12 02:02:11;;;;;;;;;;;;;;;13.57;57.00;101251.80;1715633;82;27484;-59
2022/07/12 02:04:38;;;;;;;;;;;;;;;13.54;56.84;101250.22;1715336;82;25704;-58
2022/07/12 02:07:05;;;;;;;;;;;;;;;13.52;57.21;101247.31;1673975;83;25899;-58
2022/07/12 02:09:32;;;;;;;;;;;;;;;13.50;57.22;101249.30;1651226;84;27113;-59
2022/07/12 02:11:59;;;;;;;;;;;;;;;13.47;57.27;101253.15;1665097;84;25694;-58
2022/07/12 02:14:26;;;;;;;;;;;;;;;13.48;57.62;101264.83;1664067;84;28319;-59
2022/07/12 02:16:53;;;;;;;;;;;;;;;13.45;58.13;101260.54;1670759;84;25884;-58
2022/07/12 02:19:19;;;;;;;;;;;;;;;13.42;59.01;101263.55;1662376;84;25692;-59
2022/07/12 02:21:46;;;;;;;;;;;;;;;13.29;59.76;101263.80;1673840;84;26111;-58
2022/07/12 02:24:13;;;;;;;;;;;;;;;13.24;59.04;101258.83;1677796;84;25435;-59
2022/07/12 02:26:40;;;;;;;;;;;;;;;13.22;58.88;101262.16;1672160;84;28289;-58
2022/07/12 02:29:07;;;;;;;;;;;;;;;13.17;58.81;101267.14;1656522;84;25781;-58
2022/07/12 02:31:33;;;;;;;;;;;;;;;13.15;58.82;101269.97;1659283;85;26389;-56
2022/07/12 02:34:00;;;;;;;;;;;;;;;13.15;59.05;101271.31;1670168;84;26052;-58
2022/07/12 02:36:27;;;;;;;;;;;;;;;13.16;59.11;101278.94;1670093;85;25755;-58
2022/07/12 02:38:55;;;;;;;;;;;;;;;13.16;59.26;101284.34;1672989;84;27491;-58
2022/07/12 02:41:21;;;;;;;;;;;;;;;13.17;59.46;101278.43;1675703;84;25691;-58
2022/07/12 02:43:48;;;;;;;;;;;;;;;13.15;59.26;101268.61;1669685;84;25882;-58
2022/07/12 02:46:14;;;;;;;;;;;;;;;13.18;59.52;101270.69;1679516;83;26899;-58
2022/07/12 02:48:41;;;;;;;;;;;;;;;13.21;59.45;101271.77;1698609;83;25726;-58
2022/07/12 02:51:09;;;;;;;;;;;;;;;13.25;59.49;101269.12;1711536;82;27434;-58
2022/07/12 02:53:36;;;;;;;;;;;;;;;13.25;59.69;101269.99;1702908;82;25831;-58
2022/07/12 02:56:03;;;;;;;;;;;;;;;13.27;59.69;101273.89;1710813;82;25777;-56
2022/07/12 02:58:30;;;;;;;;;;;;;;;13.28;59.39;101272.90;1689693;83;28325;-58
2022/07/12 03:00:56;;;;;;;;;;;;;;;13.23;59.70;101280.56;1672296;83;26024;-59
2022/07/12 03:03:23;;;;;;;;;;;;;;;13.22;59.78;101269.42;1679581;84;27502;-59
2022/07/12 03:05:49;;;;;;;;;;;;;;;13.21;60.22;101266.36;1666895;83;25772;-58
2022/07/12 03:08:16;;;;;;;;;;;;;;;13.15;61.21;101276.72;1650250;85;25775;-58
2022/07/12 03:10:43;;;;;;;;;;;;;;;13.20;60.62;101280.34;1667532;84;26114;-58
2022/07/12 03:13:09;;;;;;;;;;;;;;;13.22;60.48;101278.37;1669464;85;25695;-58
2022/07/12 03:15:36;;;;;;;;;;;;;;;13.26;60.47;101280.28;1666563;84;27543;-59
2022/07/12 03:18:02;;;;;;;;;;;;;;;13.23;61.49;101284.61;1669189;84;26310;-59
2022/07/12 03:20:30;;;;;;;;;;;;;;;13.25;60.76;101286.68;1669926;84;25802;-59
2022/07/12 03:22:57;;;;;;;;;;;;;;;13.29;60.58;101281.37;1660000;84;27080;-58
2022/07/12 03:25:24;;;;;;;;;;;;;;;13.32;60.91;101283.77;1667326;85;25770;-59
2022/07/12 03:27:51;;;;;;;;;;;;;;;13.31;61.09;101280.73;1667026;84;27491;-60
2022/07/12 03:30:18;;;;;;;;;;;;;;;13.36;60.85;101283.84;1674805;84;26273;-59
2022/07/12 03:32:44;;;;;;;;;;;;;;;13.45;60.62;101278.11;1675590;84;25699;-59
2022/07/12 03:35:11;;;;;;;;;;;;;;;13.52;60.53;101275.21;1669123;85;26110;-59
2022/07/12 03:37:45;;;;;;;;;;;;;;;13.58;60.21;101275.98;1665394;84;25998;-58
2022/07/12 03:40:13;;;;;;;;;;;;;;;13.65;60.01;101274.05;1672839;84;27804;-59
2022/07/12 03:42:41;;;;;;;;;;;;;;;13.71;59.82;101275.67;1660122;84;26576;-58
2022/07/12 03:45:09;;;;;;;;;;;;;;;13.76;59.97;101282.84;1667715;84;25774;-58
2022/07/12 03:47:37;;;;;;;;;;;;;;;13.83;59.93;101280.94;1667484;83;26117;-57
2022/07/12 03:50:06;;;;;;;;;;;;;;;13.88;59.68;101282.69;1684060;84;25836;-58
2022/07/12 03:52:33;;;;;;;;;;;;;;;13.95;59.91;101290.57;1680470;84;27435;-58
2022/07/12 03:55:02;;;;;;;;;;;;;;;14.02;59.82;101295.77;1666565;84;25704;-58
2022/07/12 03:57:29;;;;;;;;;;;;;;;14.09;59.59;101291.96;1670903;83;25825;-58
2022/07/12 03:59:57;;;;;;;;;;;;;;;14.14;59.43;101299.64;1658635;84;26183;-58
2022/07/12 04:02:24;;;;;;;;;;;;;;;14.20;59.58;101297.72;1670754;85;25849;-58
2022/07/12 04:04:51;;;;;;;;;;;;;;;14.26;58.78;101302.53;1673392;84;28145;-59
2022/07/12 04:07:18;;;;;;;;;;;;;;;14.32;58.49;101306.50;1708638;83;25872;-59
2022/07/12 04:09:45;;;;;;;;;;;;;;;14.37;58.25;101303.71;1704666;82;25452;-59
2022/07/12 04:12:11;;;;;;;;;;;;;;;14.47;58.17;101304.17;1683382;83;27345;-58
2022/07/12 04:14:38;;;;;;;;;;;;;;;14.54;57.78;101299.87;1650355;84;25803;-58
2022/07/12 04:17:05;;;;;;;;;;;;;;;14.58;57.47;101307.19;1670061;84;27443;-59
2022/07/12 04:19:33;;;;;;;;;;;;;;;14.63;57.25;101311.16;1671198;84;25813;-60
2022/07/12 04:22:00;;;;;;;;;;;;;;;14.71;57.04;101308.58;1678893;84;25925;-59
2022/07/12 04:24:27;;;;;;;;;;;;;;;14.75;56.72;101315.06;1670461;84;26248;-59
2022/07/12 04:26:53;;;;;;;;;;;;;;;14.79;56.38;101321.86;1672489;83;26408;-58
2022/07/12 04:29:21;;;;;;;;;;;;;;;14.78;56.31;101314.73;1667317;85;27492;-58
2022/07/12 04:31:47;;;;;;;;;;;;;;;14.82;56.15;101314.80;1673285;84;25983;-58
2022/07/12 04:34:17;;;;;;;;;;;;;;;14.84;56.07;101314.13;1661843;84;25722;-59
2022/07/12 04:36:44;;;;;;;;;;;;;;;14.88;56.07;101307.94;1673469;84;26359;-58
2022/07/12 04:39:11;;;;;;;;;;;;;;;14.94;55.92;101305.96;1668885;84;25994;-59
2022/07/12 04:41:38;;;;;;;;;;;;;;;14.99;55.55;101309.05;1651455;84;27517;-58
2022/07/12 04:44:06;;;;;;;;;;;;;;;15.01;55.36;101304.34;1675212;84;25714;-58
2022/07/12 04:46:33;;;;;;;;;;;;;;;15.08;55.32;101310.84;1693135;83;25778;-58
2022/07/12 04:49:00;;;;;;;;;;;;;;;15.09;55.01;101311.20;1704421;83;26099;-58
2022/07/12 04:51:27;;;;;;;;;;;;;;;15.11;55.01;101313.75;1707237;83;26153;-57
2022/07/12 04:53:53;;;;;;;;;;;;;;;15.16;54.95;101312.29;1703408;82;28190;-58
2022/07/12 04:56:20;;;;;;;;;;;;;;;15.23;54.71;101309.83;1704049;83;25753;-58
2022/07/12 04:58:47;;;;;;;;;;;;;;;15.27;54.64;101315.30;1711082;82;25835;-58
2022/07/12 05:01:15;;;;;;;;;;;;;;;15.36;54.52;101318.09;1705618;82;26273;-58
2022/07/12 05:03:41;;;;;;;;;;;;;;;15.45;54.19;101313.10;1710369;82;25791;-58
2022/07/12 05:06:08;;;;;;;;;;;;;;;15.51;54.09;101315.18;1712724;82;27429;-58
2022/07/12 05:08:35;;;;;;;;;;;;;;;15.55;53.80;101313.00;1707926;81;25914;-58
2022/07/12 05:11:01;;;;;;;;;;;;;;;15.55;52.87;101317.94;1697529;82;25842;-59
2022/07/12 05:13:28;;;;;;;;;;;;;;;15.58;53.02;101308.64;1651682;84;26124;-58
2022/07/12 05:15:54;;;;;;;;;;;;;;;15.65;52.52;101308.36;1664087;84;25846;-58
2022/07/12 05:18:20;;;;;;;;;;;;;;;15.70;52.29;101298.39;1668618;84;27480;-58
2022/07/12 05:20:47;;;;;;;;;;;;;;;15.72;51.94;101296.38;1669715;84;25703;-58
2022/07/12 05:23:13;;;;;;;;;;;;;;;15.73;52.29;101285.88;1666664;85;25747;-58
2022/07/12 05:25:40;;;;;;;;;;;;;;;15.78;52.59;101285.73;1682258;84;26877;-58
2022/07/12 05:28:07;;;;;;;;;;;;;;;15.86;51.87;101289.05;1673933;84;25765;-59
2022/07/12 05:30:33;;;;;;;;;;;;;;;15.92;51.94;101286.22;1659726;82;27486;-58
2022/07/12 05:33:00;;;;;;;;;;;;;;;15.96;51.50;101288.45;1675728;84;26453;-58
2022/07/12 05:35:27;;;;;;;;;;;;;;;16.03;51.56;101291.88;1679445;84;25834;-58
2022/07/12 05:37:54;;;;;;;;;;;;;;;16.07;51.43;101293.27;1669041;84;26199;-58
2022/07/12 05:40:20;;;;;;;;;;;;;;;16.11;51.21;101298.70;1675815;84;27281;-58
2022/07/12 05:42:47;;;;;;;;;;;;;;;16.13;51.10;101291.27;1666514;84;27430;-58
2022/07/12 05:45:13;;;;;;;;;;;;;;;16.18;51.23;101286.20;1676037;84;25509;-58
2022/07/12 05:47:40;;;;;;;;;;;;;;;16.26;51.27;101291.70;1696124;83;25768;-59
2022/07/12 05:50:08;;;;;;;;;;;;;;;16.36;50.54;101289.38;1694791;83;26547;-58
2022/07/12 05:55:20;;;;;;;;;;;;;;;16.44;51.16;101289.41;1704989;83;27658;-58
2022/07/12 05:57:47;;;;;;;;;;;;;;;16.47;50.78;101289.59;1688688;83;27288;-58
2022/07/12 06:00:15;;;;;;;;;;;;;;;16.47;50.51;101284.99;1680411;84;26222;-58
2022/07/12 06:02:42;;;;;;;;;;;;;;;16.48;50.37;101290.77;1665933;84;26650;-59
2022/07/12 06:05:09;;;;;;;;;;;;;;;16.47;50.37;101289.07;1678022;83;27316;-59
2022/07/12 06:07:36;;;;;;;;;;;;;;;16.53;50.43;101291.16;1702219;82;27485;-59
2022/07/12 06:10:04;;;;;;;;;;;;;;;16.58;50.01;101290.14;1709400;82;25720;-59
2022/07/12 06:12:31;;;;;;;;;;;;;;;16.65;49.82;101286.77;1672740;83;25924;-58
2022/07/12 06:14:57;;;;;;;;;;;;;;;16.71;49.98;101287.49;1680995;84;26095;-59
2022/07/12 06:17:24;;;;;;;;;;;;;;;16.77;49.78;101282.75;1668014;84;25736;-59
2022/07/12 06:19:51;;;;;;;;;;;;;;;16.81;49.93;101274.59;1671914;84;27667;-58
2022/07/12 06:22:17;;;;;;;;;;;;;;;16.88;50.36;101275.66;1650879;84;25949;-59
2022/07/12 06:24:44;;;;;;;;;;;;;;;16.97;50.22;101270.27;1671048;83;25702;-59
2022/07/12 06:27:11;;;;;;;;;;;;;;;17.06;49.14;101272.00;1656555;84;27230;-58
2022/07/12 06:29:38;;;;;;;;;;;;;;;17.09;48.60;101274.36;1669046;84;25888;-59
2022/07/12 06:32:05;;;;;;;;;;;;;;;17.09;48.52;101277.08;1675130;84;27551;-59
2022/07/12 06:34:32;;;;;;;;;;;;;;;17.12;47.97;101283.55;1656375;84;26027;-62
2022/07/12 06:36:58;;;;;;;;;;;;;;;17.16;47.76;101274.55;1664361;85;25752;-59
2022/07/12 06:39:25;;;;;;;;;;;;;;;17.20;48.14;101274.05;1662681;83;26278;-59
2022/07/12 06:41:52;;;;;;;;;;;;;;;17.28;47.69;101276.43;1677211;83;25734;-59
2022/07/12 06:44:19;;;;;;;;;;;;;;;17.35;47.49;101277.45;1671529;84;27582;-59
2022/07/12 06:46:45;;;;;;;;;;;;;;;17.40;47.41;101268.78;1684484;83;25966;-59
2022/07/12 06:49:12;;;;;;;;;;;;;;;17.47;46.85;101270.67;1694022;82;25774;-59
2022/07/12 06:51:39;;;;;;;;;;;;;;;17.52;47.08;101264.72;1697178;82;26157;-59
2022/07/12 06:54:05;;;;;;;;;;;;;;;17.61;47.00;101263.70;1694419;83;25688;-58
2022/07/12 06:56:32;;;;;;;;;;;;;;;17.69;46.83;101272.38;1705055;83;31096;-59
2022/07/12 06:58:59;;;;;;;;;;;;;;;17.74;46.61;101260.98;1674509;83;25697;-59
2022/07/12 07:01:25;;;;;;;;;;;;;;;17.80;46.38;101265.73;1662496;83;25713;-59
2022/07/12 07:03:52;;;;;;;;;;;;;;;17.85;46.16;101260.61;1674964;84;26176;-60
2022/07/12 07:06:19;;;;;;;;;;;;;;;17.92;45.91;101268.94;1674402;84;25791;-59
2022/07/12 07:08:46;;;;;;;;;;;;;;;18.02;45.65;101266.92;1673611;84;27592;-59
2022/07/12 07:11:12;;;;;;;;;;;;;;;18.12;45.42;101269.44;1673977;83;25682;-59
2022/07/12 07:13:39;;;;;;;;;;;;;;;18.13;44.47;101270.64;1670765;84;25739;-59
2022/07/12 07:16:08;;;;;;;;;;;;;;;18.21;44.84;101262.94;1666425;84;26105;-59
2022/07/12 07:18:35;;;;;;;;;;;;;;;18.37;44.96;101260.69;1672197;84;25698;-59
2022/07/12 07:21:02;;;;;;;;;;;;;;;18.54;44.55;101261.48;1671905;85;27486;-59
2022/07/12 07:23:28;;;;;;;;;;;;;;;18.68;44.47;101262.61;1665139;84;25803;-59
2022/07/12 07:25:55;;;;;;;;;;;;;;;18.81;43.78;101266.62;1637685;85;25844;-59
2022/07/12 07:28:21;;;;;;;;;;;;;;;18.91;43.00;101261.30;1610990;87;26175;-59
2022/07/12 07:30:54;;;;;;;;;;;;;;;19.00;42.77;101258.02;1610358;87;25752;-59
2022/07/12 07:33:21;;;;;;;;;;;;;;;19.06;42.28;101258.66;1657289;84;27479;-60
2022/07/12 07:35:49;;;;;;;;;;;;;;;19.26;42.48;101259.55;1670856;84;25744;-60
2022/07/12 07:38:16;;;;;;;;;;;;;;;19.50;42.37;101256.28;1677036;83;25926;-59
2022/07/12 07:40:44;;;;;;;;;;;;;;;19.73;41.33;101252.16;1678386;84;26094;-58
2022/07/12 07:43:11;;;;;;;;;;;;;;;19.89;41.88;101253.91;1672712;83;26011;-58
2022/07/12 07:45:37;;;;;;;;;;;;;;;20.10;41.32;101250.98;1677952;83;27491;-58
2022/07/12 07:48:05;;;;;;;;;;;;;;;20.29;41.27;101250.42;1662738;84;25758;-60
2022/07/12 07:50:31;;;;;;;;;;;;;;;20.46;39.54;101252.95;1671253;83;25791;-60
2022/07/12 07:52:58;;;;;;;;;;;;;;;20.57;39.04;101261.17;1676310;84;26178;-60
2022/07/12 07:55:24;;;;;;;;;;;;;;;20.57;38.84;101251.61;1669929;84;26001;-59
2022/07/12 07:57:51;;;;;;;;;;;;;;;20.66;39.23;101249.63;1668490;84;27475;-60
2022/07/12 08:00:18;;;;;;;;;;;;;;;20.80;39.30;101246.03;1657931;83;26684;-59
2022/07/12 08:02:45;;;;;;;;;;;;;;;20.94;39.38;101240.19;1655142;83;25762;-60
2022/07/12 08:05:11;;;;;;;;;;;;;;;21.14;38.45;101242.30;1657980;84;26133;-59
2022/07/12 08:07:38;;;;;;;;;;;;;;;21.16;37.29;101242.95;1667957;85;25892;-61
2022/07/12 08:10:06;;;;;;;;;;;;;;;21.25;37.76;101242.62;1673172;84;27502;-59
2022/07/12 08:12:33;;;;;;;;;;;;;;;21.28;36.87;101246.02;1659339;84;25910;-60
2022/07/12 08:15:00;;;;;;;;;;;;;;;21.24;36.50;101255.97;1672164;84;25769;-59
2022/07/12 08:17:26;;;;;;;;;;;;;;;21.18;36.04;101243.58;1661543;84;26579;-59
2022/07/12 08:19:53;;;;;;;;;;;;;;;21.26;35.89;101243.45;1670562;84;25942;-59
2022/07/12 08:22:19;;;;;;;;;;;;;;;21.30;36.65;101235.69;1655424;84;27646;-59
2022/07/12 08:24:46;;;;;;;;;;;;;;;21.41;35.64;101237.91;1662982;84;26953;-59
2022/07/12 08:27:12;;;;;;;;;;;;;;;21.61;35.12;101240.02;1673550;84;25871;-59
2022/07/12 08:29:39;;;;;;;;;;;;;;;21.70;34.95;101240.19;1670425;84;26179;-59
2022/07/12 08:32:07;;;;;;;;;;;;;;;21.67;35.10;101238.70;1675513;84;25820;-59
2022/07/12 08:34:34;;;;;;;;;;;;;;;21.73;35.97;101238.44;1678750;84;27473;-59
2022/07/12 08:37:01;;;;;;;;;;;;;;;21.81;35.79;101237.41;1664803;84;25916;-59
2022/07/12 08:39:27;;;;;;;;;;;;;;;21.92;35.30;101236.04;1675718;84;25819;-59
2022/07/12 08:41:54;;;;;;;;;;;;;;;21.90;35.19;101236.22;1656427;84;26837;-60
2022/07/12 08:44:20;;;;;;;;;;;;;;;21.89;35.29;101230.41;1675749;84;25459;-60
2022/07/12 08:46:47;;;;;;;;;;;;;;;21.94;35.79;101233.92;1684472;82;27478;-60
2022/07/12 08:49:14;;;;;;;;;;;;;;;22.02;34.82;101243.34;1694299;83;25822;-60
2022/07/12 08:51:41;;;;;;;;;;;;;;;22.07;35.12;101241.38;1700635;83;25838;-59
2022/07/12 08:54:10;;;;;;;;;;;;;;;22.08;34.21;101241.20;1690147;83;26111;-59
2022/07/12 08:56:39;;;;;;;;;;;;;;;22.02;34.90;101231.02;1681255;83;26698;-59
2022/07/12 08:59:20;;;;;;;;;;;;;;;22.03;34.45;101236.83;1678940;83;27499;-60
2022/07/12 09:01:54;;;;;;;;;;;;;;;22.05;34.35;101234.20;1664739;83;25824;-59
2022/07/12 09:04:25;;;;;;;;;;;;;;;22.24;34.64;101241.91;1640386;86;25768;-59
2022/07/12 09:06:52;;;;;;;;;;;;;;;22.32;33.70;101243.11;1639567;85;26801;-59
2022/07/12 09:09:37;;;;;;;;;;;;;;;22.29;33.67;101237.52;1614621;87;25875;-59
2022/07/12 09:12:05;;;;;;;;;;;;;;;22.39;33.37;101240.41;1657213;84;27483;-59
2022/07/12 09:14:32;;;;;;;;;;;;;;;22.72;33.35;101230.98;1669678;84;25845;-59
2022/07/12 09:17:09;;;;;;;;;;;;;;;23.17;32.55;101224.13;1668411;84;25506;-60
2022/07/12 09:19:33;;;;;;;;;;;;;;;23.33;32.25;101221.00;1676238;84;26171;-60
2022/07/12 09:22:00;;;;;;;;;;;;;;;23.45;32.64;101237.14;1672864;84;25909;-57
2022/07/12 09:24:28;;;;;;;;;;;;;;;23.42;30.91;101231.23;1669933;84;27403;-58
2022/07/12 09:27:03;;;;;;;;;;;;;;;23.35;31.19;101230.39;1674046;84;25696;-59
2022/07/12 09:29:31;;;;;;;;;;;;;;;23.36;31.24;101229.34;1671853;84;25455;-59
2022/07/12 09:37:27;;;;;;;;;;;;;;;23.49;31.91;101233.98;1662346;83;27088;-58
2022/07/12 09:39:55;;;;;;;;;;;;;;;23.53;30.59;101227.86;1678746;84;25671;-58
2022/07/12 09:42:22;;;;;;;;;;;;;;;23.60;30.68;101216.88;1676078;84;25778;-58
2022/07/12 09:44:49;;;;;;;;;;;;;;;23.78;30.98;101212.09;1670909;84;26381;-59
2022/07/12 09:47:16;;;;;;;;;;;;;;;24.21;30.79;101210.77;1705527;83;25757;-59
2022/07/12 09:49:44;;;;;;;;;;;;;;;24.79;28.44;101210.41;1714361;83;27642;-58
2022/07/12 09:52:14;;;;;;;;;;;;;;;25.23;27.83;101211.42;1699528;83;25892;-59
2022/07/12 09:54:42;;;;;;;;;;;;;;;25.81;28.87;101202.55;1687842;82;25686;-59
2022/07/12 09:57:24;;;;;;;;;;;;;;;26.52;28.71;101191.99;1661407;84;27037;-60
2022/07/12 09:59:52;;;;;;;;;;;;;;;27.17;26.43;101193.72;1675051;83;26716;-59
2022/07/12 10:02:19;;;;;;;;;;;;;;;27.47;25.91;101195.60;1672951;83;28250;-60
2022/07/12 10:04:47;;;;;;;;;;;;;;;27.46;26.16;101192.53;1647925;86;25825;-59
2022/07/12 10:07:15;;;;;;;;;;;;;;;27.39;25.26;101191.23;1628267;87;25977;-60
2022/07/12 10:09:48;;;;;;;;;;;;;;;27.70;23.28;101190.63;1659122;85;26084;-61
2022/07/12 10:12:20;;;;;;;;;;;;;;;27.68;24.24;101182.28;1643298;85;26185;-61
2022/07/12 10:14:49;;;;;;;;;;;;;;;27.77;23.05;101185.80;1644230;85;27472;-60
2022/07/12 10:17:21;;;;;;;;;;;;;;;28.03;23.78;101184.98;1650394;85;25782;-60
2022/07/12 10:19:48;;;;;;;;;;;;;;;28.50;22.70;101179.05;1621963;87;25921;-60
2022/07/12 10:22:21;;;;;;;;;;;;;;;29.11;23.02;101182.67;1648625;85;26133;-61
2022/07/12 10:24:51;;;;;;;;;;;;;;;29.34;21.78;101180.32;1655908;85;26292;-60
2022/07/12 10:27:23;;;;;;;;;;;;;;;29.51;21.11;101176.98;1646733;85;27671;-61
2022/07/12 10:29:52;;;;;;;;;;;;;;;28.74;21.61;101173.73;1641345;85;25880;-60
2022/07/12 10:32:25;;;;;;;;;;;;;;;27.94;21.83;101186.44;1610976;86;25816;-60
2022/07/12 10:35:00;;;;;;;;;;;;;;;27.42;22.59;101176.95;1643727;85;26244;-57
2022/07/12 10:37:28;;;;;;;;;;;;;;;26.76;23.47;101176.07;1666333;83;25845;-58
2022/07/12 10:40:14;;;;;;;;;;;;;;;26.62;24.07;101173.52;1675581;84;27537;-60
2022/07/12 10:43:05;;;;;;;;;;;;;;;27.07;23.87;101168.08;1659752;84;25947;-60
2022/07/12 10:45:36;;;;;;;;;;;;;;;27.86;23.81;101160.55;1667602;84;25823;-60
2022/07/12 10:48:06;;;;;;;;;;;;;;;28.31;23.20;101155.72;1666632;83;26128;-59
2022/07/12 10:50:45;;;;;;;;;;;;;;;29.12;21.92;101158.05;1666184;84;25490;-60
2022/07/12 10:53:22;;;;;;;;;;;;;;;29.82;21.66;101161.34;1671455;84;27563;-59
2022/07/12 10:56:22;;;;;;;;;;;;;;;30.31;20.52;101154.22;1683320;84;25818;-59
2022/07/12 10:58:55;;;;;;;;;;;;;;;30.82;20.16;101150.62;1666568;84;25919;-59
2022/07/12 11:01:29;;;;;;;;;;;;;;;31.73;20.12;101139.66;1676199;85;26753;-59
2022/07/12 11:04:00;;;;;;;;;;;;;;;32.41;19.20;101138.83;1662416;84;25846;-61
2022/07/12 11:06:27;;;;;;;;;;;;;;;31.69;19.04;101136.59;1643511;83;27482;-61
2022/07/12 11:08:59;;;;;;;;;;;;;;;32.08;18.40;101142.32;1613567;86;25665;-61
2022/07/12 11:11:33;;;;;;;;;;;;;;;32.00;18.85;101131.18;1614486;87;25856;-61
2022/07/12 11:14:01;;;;;;;;;;;;;;;31.49;19.45;101138.67;1648780;83;26154;-60
2022/07/12 11:16:29;;;;;;;;;;;;;;;31.07;19.68;101127.78;1647652;84;25763;-60
2022/07/12 11:18:56;;;;;;;;;;;;;;;30.67;20.15;101131.05;1640197;85;27010;-60
2022/07/12 11:21:24;;;;;;;;;;;;;;;30.30;20.94;101133.98;1619015;86;26074;-60
2022/07/12 11:23:51;;;;;;;;;;;;;;;29.81;19.94;101127.77;1626257;87;25907;-61
2022/07/12 11:26:18;;;;;;;;;;;;;;;29.27;21.01;101125.60;1612952;86;26692;-60
2022/07/12 11:28:47;;;;;;;;;;;;;;;29.01;21.62;101123.25;1607556;86;25813;-60
2022/07/12 11:31:15;;;;;;;;;;;;;;;28.71;22.19;101122.19;1619177;86;27502;-62
2022/07/12 11:33:47;;;;;;;;;;;;;;;28.37;21.77;101124.33;1639707;85;25942;-60
2022/07/12 11:36:15;;;;;;;;;;;;;;;28.01;22.38;101122.20;1645990;86;25828;-60
2022/07/12 11:38:43;;;;;;;;;;;;;;;27.66;23.03;101118.94;1617476;87;26093;-60
2022/07/12 11:41:15;;;;;;;;;;;;;;;27.46;23.35;101126.23;1609723;87;43209;-60
2022/07/12 11:43:43;;;;;;;;;;;;;;;27.39;23.21;101124.93;1620971;86;27544;-61
2022/07/12 11:46:10;;;;;;;;;;;;;;;28.82;22.63;101118.52;1631485;86;25890;-61
2022/07/12 11:48:38;;;;;;;;;;;;;;;30.06;22.22;101120.92;1619024;86;25919;-63
2022/07/12 11:51:10;;;;;;;;;;;;;;;31.33;20.67;101121.62;1627571;86;26994;-61
2022/07/12 11:53:38;;;;;;;;;;;;;;;32.36;19.14;101108.20;1617749;86;25823;-61
2022/07/12 11:56:06;;;;;;;;;;;;;;;33.40;18.45;101111.87;1630291;86;27481;-61
2022/07/12 11:58:37;;;;;;;;;;;;;;;34.37;18.14;101110.38;1609316;87;25941;-61
2022/07/12 12:01:03;;;;;;;;;;;;;;;35.34;16.76;101107.92;1612215;86;25827;-62
2022/07/12 12:03:34;;;;;;;;;;;;;;;35.06;15.67;101128.61;1623551;87;26040;-62
2022/07/12 12:06:03;;;;;;;;;;;;;;;34.07;15.66;101118.61;1632210;85;26815;-63
2022/07/12 12:08:30;;;;;;;;;;;;;;;33.02;16.24;101112.73;1614849;86;27469;-63
2022/07/12 12:10:59;;;;;;;;;;;;;;;32.27;17.28;101111.23;1608404;86;25912;-61
2022/07/12 12:13:28;;;;;;;;;;;;;;;31.76;17.63;101113.25;1608550;87;25896;-61
2022/07/12 12:16:00;;;;;;;;;;;;;;;31.16;18.36;101110.66;1625756;86;26036;-61
2022/07/12 12:18:34;;;;;;;;;;;;;;;31.40;18.38;101106.92;1631382;86;25486;-60
2022/07/12 12:21:05;;;;;;;;;;;;;;;31.56;18.12;101102.27;1616746;85;27689;-61
2022/07/12 12:23:33;;;;;;;;;;;;;;;31.38;18.60;101107.73;1633142;86;25856;-61
2022/07/12 12:26:16;;;;;;;;;;;;;;;30.88;18.52;101105.14;1625410;87;25916;-61
2022/07/12 12:28:48;;;;;;;;;;;;;;;30.09;18.35;101112.92;1626913;86;26189;-60
2022/07/12 12:31:18;;;;;;;;;;;;;;;29.73;18.97;101110.20;1620936;85;25825;-61
2022/07/12 12:33:49;;;;;;;;;;;;;;;29.00;19.11;101111.87;1621900;87;27662;-60
2022/07/12 12:36:22;;;;;;;;;;;;;;;28.53;20.38;101109.39;1610924;87;25862;-60
2022/07/12 12:38:50;;;;;;;;;;;;;;;28.39;20.35;101105.53;1639066;85;25871;-61
2022/07/12 12:41:17;;;;;;;;;;;;;;;28.23;20.71;101104.95;1619687;86;26111;-60
2022/07/12 12:43:44;;;;;;;;;;;;;;;28.00;20.66;101113.60;1613948;87;25921;-60
2022/07/12 12:46:11;;;;;;;;;;;;;;;27.72;20.82;101116.61;1623808;86;27562;-61
2022/07/12 12:48:41;;;;;;;;;;;;;;;27.68;21.46;101115.39;1622710;87;25894;-60